createdAt,value
2019-06-07T07:50:00.199Z,29.2
2019-06-07T07:54:58.488Z,26.7
2019-06-07T08:00:25.579Z,29.2
2019-06-07T08:05:21.001Z,30
2019-06-07T08:10:03.266Z,35
2019-06-07T08:15:02.998Z,35.8
2019-06-07T08:20:02.566Z,25.8
2019-06-07T08:35:06.244Z,41.7
2019-06-07T08:40:01.841Z,40
2019-06-07T08:50:20.617Z,37.5
2019-06-07T08:50:24.769Z,37.5
2019-06-07T08:55:04.816Z,30.8
2019-06-07T09:00:16.317Z,31.7
2019-06-07T09:05:11.107Z,33.3
2019-06-07T09:10:08.466Z,31.7
2019-06-07T09:15:19.495Z,29.2
2019-06-07T09:20:07.282Z,30.8
2019-06-07T09:25:04.325Z,30.8
2019-06-07T09:30:03.232Z,33.3
2019-06-07T09:35:07.400Z,36.7
2019-06-07T09:40:10.287Z,47.5
2019-06-07T09:45:02.128Z,43.3
2019-06-07T09:50:05.977Z,50.8
2019-06-07T09:55:12.024Z,38.3
2019-06-07T10:00:10.445Z,35
2019-06-07T10:05:02.593Z,53.3
2019-06-07T10:15:00.639Z,58.3
2019-06-07T10:20:00.549Z,47.5
2019-06-07T10:25:01.829Z,50.8
2019-06-07T10:30:00.377Z,50
2019-06-07T11:40:03.261Z,52.5
2019-06-07T11:45:00.844Z,57.5
2019-06-07T11:50:00.897Z,44.2
2019-06-07T11:55:00.751Z,55
2019-06-07T12:00:00.876Z,53.3
2019-06-07T12:05:00.846Z,55.8
2019-06-07T12:30:09.993Z,50
2019-06-07T12:35:00.878Z,44.2
2019-06-07T12:40:00.844Z,50.8
2019-06-07T12:45:01.161Z,53.3
2019-06-07T12:50:01.156Z,61.7
2019-06-07T12:55:00.689Z,69.2
2019-06-07T13:00:00.689Z,41.7
2019-06-07T13:05:04.487Z,36.7
2019-06-07T13:10:00.837Z,81.7
2019-06-07T13:15:00.816Z,35
2019-06-07T13:20:00.812Z,20.8
2019-06-07T13:25:00.974Z,25.8
2019-06-07T13:30:09.098Z,33.3
2019-06-07T13:35:00.754Z,30.8
2019-06-07T13:40:00.560Z,25
2019-06-07T13:55:03.768Z,7.5
2019-06-07T14:00:09.910Z,8.3
2019-06-07T14:05:00.605Z,3.3
2019-06-07T14:10:01.130Z,2.5
2019-06-07T14:15:00.579Z,3.3
2019-06-07T17:10:03.841Z,0
2019-06-07T17:15:00.877Z,0
2019-06-07T17:20:00.866Z,0
2019-06-07T17:25:01.128Z,0.8
2019-06-07T17:30:00.905Z,0.8
2019-06-07T17:35:01.104Z,0.8
2019-06-07T17:40:00.853Z,3.3
2019-06-07T17:45:00.762Z,4.2
2019-06-07T17:50:02.058Z,3.3
2019-06-07T17:55:01.030Z,3.3
2019-06-07T18:00:27.084Z,2.5
2019-06-07T18:05:00.917Z,2.5
2019-06-07T18:10:00.840Z,2.5
2019-06-07T18:15:00.716Z,3.3
2019-06-07T18:20:00.925Z,2.5
2019-06-07T18:25:00.857Z,1.7
2019-06-07T18:30:10.787Z,1.7
2019-06-07T18:35:00.865Z,1.7
2019-06-07T18:40:00.718Z,1.7
2019-06-07T18:45:00.848Z,1.7
2019-06-07T18:50:00.854Z,0.8
2019-06-07T18:55:00.624Z,0.8
2019-06-07T19:00:00.980Z,0.8
2019-06-07T19:05:01.310Z,0.8
2019-06-07T19:10:00.677Z,0.8
2019-06-07T19:15:00.920Z,0.8
2019-06-07T19:20:00.839Z,0.8
2019-06-07T19:25:00.741Z,0
2019-06-07T19:30:01.089Z,0
2019-06-07T19:35:01.662Z,0
2019-06-07T19:40:02.565Z,0
2019-06-07T19:45:24.910Z,0
2019-06-07T19:50:00.983Z,0
2019-06-07T19:55:05.798Z,0
2019-06-07T20:00:02.679Z,0
2019-06-07T20:05:04.598Z,0
2019-06-07T20:10:00.746Z,0
2019-06-07T20:15:25.266Z,0
2019-06-07T20:20:02.699Z,0
2019-06-07T20:25:00.892Z,0
2019-06-07T20:30:00.797Z,0
2019-06-07T20:35:01.682Z,0
2019-06-07T20:40:16.722Z,0
2019-06-07T20:45:01.990Z,0
2019-06-07T20:50:00.619Z,0
2019-06-07T20:55:00.645Z,0
2019-06-07T21:00:02.507Z,0
2019-06-07T21:05:01.101Z,0
2019-06-07T21:10:03.798Z,0
2019-06-07T21:15:06.115Z,0
2019-06-07T21:20:00.640Z,0
2019-06-07T21:25:00.735Z,0
2019-06-07T21:30:01.020Z,0
2019-06-07T21:35:01.867Z,0
2019-06-07T21:40:01.677Z,0
2019-06-07T21:45:00.363Z,0
2019-06-07T21:50:00.584Z,0
2019-06-07T21:55:00.546Z,0
2019-06-07T22:00:00.510Z,0
2019-06-07T22:05:00.631Z,0
2019-06-07T22:10:00.634Z,0
2019-06-07T22:15:00.651Z,0
2019-06-07T22:20:00.531Z,0
2019-06-07T22:25:00.593Z,0
2019-06-07T22:30:00.564Z,0
2019-06-07T22:35:00.483Z,0
2019-06-07T22:40:00.533Z,0
2019-06-07T22:45:00.431Z,0
2019-06-07T22:50:00.749Z,0
2019-06-07T22:55:00.543Z,0
2019-06-07T23:00:04.828Z,0
2019-06-07T23:05:04.719Z,0
2019-06-07T23:10:00.414Z,0
2019-06-07T23:15:00.407Z,0
2019-06-07T23:20:00.785Z,0
2019-06-07T23:25:00.514Z,0
2019-06-07T23:30:08.091Z,0
2019-06-07T23:35:00.248Z,0
2019-06-07T23:40:00.382Z,0
2019-06-07T23:45:00.219Z,0
2019-06-07T23:50:00.451Z,0
2019-06-07T23:55:00.366Z,0
